sensor_id;sensor_type;location;lat;lon;timestamp;P1;durP1;ratioP1;P2;durP2;ratioP2
63296;SDS011;49419;51.716;-4.948;2022-08-19T07:27:13;8.23;;;7.82;;
63296;SDS011;49419;51.716;-4.948;2022-08-19T07:29:39;8.10;;;7.70;;
63296;SDS011;49419;51.716;-4.948;2022-08-19T07:32:05;8.15;;;7.75;;
63296;SDS011;49419;51.716;-4.948;2022-08-19T07:34:31;7.72;;;7.32;;
63296;SDS011;49419;51.716;-4.948;2022-08-19T07:37:03;8.07;;;7.47;;
63296;SDS011;49419;51.716;-4.948;2022-08-19T07:39:34;8.10;;;7.40;;
63296;SDS011;49419;51.716;-4.948;2022-08-19T07:42:07;8.30;;;7.80;;
63296;SDS011;49419;51.716;-4.948;2022-08-19T07:44:34;8.90;;;8.20;;
63296;SDS011;49419;51.716;-4.948;2022-08-19T07:47:01;8.75;;;8.15;;
63296;SDS011;49419;51.716;-4.948;2022-08-19T07:49:30;8.00;;;7.40;;
63296;SDS011;49419;51.716;-4.948;2022-08-19T08:06:33;8.50;;;7.80;;
63296;SDS011;49419;51.716;-4.948;2022-08-19T08:09:28;8.00;;;7.30;;
63296;SDS011;49419;51.716;-4.948;2022-08-19T08:11:58;8.50;;;7.70;;
63296;SDS011;49419;51.716;-4.948;2022-08-19T08:17:24;8.55;;;7.60;;
63296;SDS011;49419;51.716;-4.948;2022-08-19T08:19:51;7.70;;;7.10;;
63296;SDS011;49419;51.716;-4.948;2022-08-19T08:22:18;7.20;;;6.50;;
63296;SDS011;49419;51.716;-4.948;2022-08-19T08:25:13;7.38;;;6.82;;
63296;SDS011;49419;51.716;-4.948;2022-08-19T08:27:40;7.20;;;6.60;;
63296;SDS011;49419;51.716;-4.948;2022-08-19T08:30:09;7.57;;;6.93;;
63296;SDS011;49419;51.716;-4.948;2022-08-19T08:32:37;6.88;;;6.28;;
63296;SDS011;49419;51.716;-4.948;2022-08-19T08:35:08;7.00;;;6.40;;
63296;SDS011;49419;51.716;-4.948;2022-08-19T08:37:34;6.80;;;6.28;;
63296;SDS011;49419;51.716;-4.948;2022-08-19T08:40:07;6.47;;;5.97;;
63296;SDS011;49419;51.716;-4.948;2022-08-19T08:42:44;6.93;;;6.38;;
63296;SDS011;49419;51.716;-4.948;2022-08-19T08:45:19;6.38;;;5.78;;
63296;SDS011;49419;51.716;-4.948;2022-08-19T08:47:50;6.50;;;6.00;;
63296;SDS011;49419;51.716;-4.948;2022-08-19T08:50:38;6.65;;;5.97;;
63296;SDS011;49419;51.716;-4.948;2022-08-19T08:53:08;5.70;;;5.15;;
63296;SDS011;49419;51.716;-4.948;2022-08-19T08:55:35;6.15;;;5.55;;
63296;SDS011;49419;51.716;-4.948;2022-08-19T08:58:03;6.90;;;5.40;;
63296;SDS011;49419;51.716;-4.948;2022-08-19T09:03:00;7.30;;;5.80;;
63296;SDS011;49419;51.716;-4.948;2022-08-19T09:05:44;5.57;;;5.13;;
63296;SDS011;49419;51.716;-4.948;2022-08-19T09:10:51;6.75;;;5.70;;
63296;SDS011;49419;51.716;-4.948;2022-08-19T09:16:07;5.55;;;5.15;;
63296;SDS011;49419;51.716;-4.948;2022-08-19T09:18:44;5.45;;;5.00;;
63296;SDS011;49419;51.716;-4.948;2022-08-19T09:21:19;5.50;;;5.00;;
63296;SDS011;49419;51.716;-4.948;2022-08-19T09:23:52;5.45;;;4.95;;
63296;SDS011;49419;51.716;-4.948;2022-08-19T09:26:19;5.90;;;5.25;;
63296;SDS011;49419;51.716;-4.948;2022-08-19T09:28:47;5.88;;;5.32;;
63296;SDS011;49419;51.716;-4.948;2022-08-19T09:31:22;5.93;;;5.32;;
63296;SDS011;49419;51.716;-4.948;2022-08-19T09:33:50;6.07;;;5.57;;
63296;SDS011;49419;51.716;-4.948;2022-08-19T09:36:18;6.00;;;5.45;;
63296;SDS011;49419;51.716;-4.948;2022-08-19T09:38:47;6.50;;;5.07;;
63296;SDS011;49419;51.716;-4.948;2022-08-19T09:41:17;5.65;;;5.15;;
63296;SDS011;49419;51.716;-4.948;2022-08-19T09:43:47;6.95;;;5.63;;
63296;SDS011;49419;51.716;-4.948;2022-08-19T09:46:16;6.70;;;6.10;;
63296;SDS011;49419;51.716;-4.948;2022-08-19T09:48:45;6.32;;;5.80;;
63296;SDS011;49419;51.716;-4.948;2022-08-19T09:51:14;7.00;;;6.20;;
63296;SDS011;49419;51.716;-4.948;2022-08-19T09:53:41;7.93;;;6.93;;
63296;SDS011;49419;51.716;-4.948;2022-08-19T09:58:49;6.50;;;5.90;;
63296;SDS011;49419;51.716;-4.948;2022-08-19T10:01:17;7.10;;;5.90;;
63296;SDS011;49419;51.716;-4.948;2022-08-19T10:03:47;6.03;;;5.50;;
63296;SDS011;49419;51.716;-4.948;2022-08-19T10:06:18;5.65;;;5.13;;
63296;SDS011;49419;51.716;-4.948;2022-08-19T10:08:44;5.07;;;4.57;;
63296;SDS011;49419;51.716;-4.948;2022-08-19T10:11:13;5.63;;;4.38;;
63296;SDS011;49419;51.716;-4.948;2022-08-19T10:13:42;4.57;;;4.20;;
63296;SDS011;49419;51.716;-4.948;2022-08-19T10:16:12;4.47;;;3.85;;
63296;SDS011;49419;51.716;-4.948;2022-08-19T10:18:43;4.47;;;3.45;;
63296;SDS011;49419;51.716;-4.948;2022-08-19T10:21:13;3.03;;;2.70;;
63296;SDS011;49419;51.716;-4.948;2022-08-19T10:23:46;3.15;;;2.55;;
63296;SDS011;49419;51.716;-4.948;2022-08-19T10:26:17;3.50;;;2.67;;
63296;SDS011;49419;51.716;-4.948;2022-08-19T10:28:46;2.88;;;2.67;;
63296;SDS011;49419;51.716;-4.948;2022-08-19T10:31:15;2.67;;;2.38;;
63296;SDS011;49419;51.716;-4.948;2022-08-19T10:33:42;4.10;;;3.13;;
63296;SDS011;49419;51.716;-4.948;2022-08-19T10:36:16;2.95;;;2.70;;
63296;SDS011;49419;51.716;-4.948;2022-08-19T10:38:45;4.05;;;2.85;;
63296;SDS011;49419;51.716;-4.948;2022-08-19T10:41:18;5.03;;;3.10;;
63296;SDS011;49419;51.716;-4.948;2022-08-19T10:43:50;3.42;;;3.10;;
63296;SDS011;49419;51.716;-4.948;2022-08-19T10:46:20;3.40;;;3.15;;
63296;SDS011;49419;51.716;-4.948;2022-08-19T10:48:49;3.40;;;3.10;;
63296;SDS011;49419;51.716;-4.948;2022-08-19T10:51:15;3.47;;;3.15;;
63296;SDS011;49419;51.716;-4.948;2022-08-19T10:53:59;3.55;;;3.10;;
63296;SDS011;49419;51.716;-4.948;2022-08-19T10:56:26;3.60;;;3.13;;
63296;SDS011;49419;51.716;-4.948;2022-08-19T10:59:11;3.08;;;2.65;;
63296;SDS011;49419;51.716;-4.948;2022-08-19T11:01:54;2.97;;;2.78;;
63296;SDS011;49419;51.716;-4.948;2022-08-19T11:04:26;3.05;;;2.85;;
63296;SDS011;49419;51.716;-4.948;2022-08-19T11:06:51;2.72;;;2.53;;
63296;SDS011;49419;51.716;-4.948;2022-08-19T11:20:06;3.20;;;2.60;;
63296;SDS011;49419;51.716;-4.948;2022-08-19T11:22:33;3.53;;;3.10;;
63296;SDS011;49419;51.716;-4.948;2022-08-19T11:25:08;3.47;;;3.05;;
63296;SDS011;49419;51.716;-4.948;2022-08-19T11:27:41;4.43;;;3.10;;
63296;SDS011;49419;51.716;-4.948;2022-08-19T11:30:14;3.50;;;3.20;;
63296;SDS011;49419;51.716;-4.948;2022-08-19T11:32:41;3.10;;;2.80;;
63296;SDS011;49419;51.716;-4.948;2022-08-19T11:35:06;4.30;;;3.45;;
63296;SDS011;49419;51.716;-4.948;2022-08-19T11:37:34;3.50;;;3.20;;
63296;SDS011;49419;51.716;-4.948;2022-08-19T11:40:04;3.45;;;3.15;;
63296;SDS011;49419;51.716;-4.948;2022-08-19T11:42:31;3.50;;;3.30;;
63296;SDS011;49419;51.716;-4.948;2022-08-19T11:45:15;3.58;;;3.28;;
63296;SDS011;49419;51.716;-4.948;2022-08-19T11:47:41;3.58;;;3.28;;
63296;SDS011;49419;51.716;-4.948;2022-08-19T11:50:09;3.65;;;3.35;;
63296;SDS011;49419;51.716;-4.948;2022-08-19T11:52:34;3.70;;;3.30;;
63296;SDS011;49419;51.716;-4.948;2022-08-19T11:57:38;5.07;;;3.40;;
63296;SDS011;49419;51.716;-4.948;2022-08-19T12:00:06;4.82;;;3.25;;
63296;SDS011;49419;51.716;-4.948;2022-08-19T12:02:32;3.47;;;3.17;;
63296;SDS011;49419;51.716;-4.948;2022-08-19T12:04:58;3.00;;;2.80;;
63296;SDS011;49419;51.716;-4.948;2022-08-19T12:07:26;3.10;;;2.80;;
63296;SDS011;49419;51.716;-4.948;2022-08-19T12:09:52;3.42;;;2.95;;
63296;SDS011;49419;51.716;-4.948;2022-08-19T12:12:18;4.38;;;3.30;;
63296;SDS011;49419;51.716;-4.948;2022-08-19T12:14:43;4.70;;;3.15;;
63296;SDS011;49419;51.716;-4.948;2022-08-19T12:17:09;3.67;;;3.10;;
63296;SDS011;49419;51.716;-4.948;2022-08-19T12:19:36;3.00;;;2.80;;
63296;SDS011;49419;51.716;-4.948;2022-08-19T12:22:09;3.63;;;3.20;;
63296;SDS011;49419;51.716;-4.948;2022-08-19T12:24:35;2.90;;;2.70;;
63296;SDS011;49419;51.716;-4.948;2022-08-19T12:27:03;3.30;;;3.00;;
63296;SDS011;49419;51.716;-4.948;2022-08-19T12:29:30;2.88;;;2.67;;
63296;SDS011;49419;51.716;-4.948;2022-08-19T12:31:59;3.78;;;2.58;;
63296;SDS011;49419;51.716;-4.948;2022-08-19T12:34:31;3.38;;;2.50;;
63296;SDS011;49419;51.716;-4.948;2022-08-19T12:37:12;3.05;;;2.72;;
63296;SDS011;49419;51.716;-4.948;2022-08-19T12:39:39;2.90;;;2.70;;
63296;SDS011;49419;51.716;-4.948;2022-08-19T12:42:12;2.85;;;2.65;;
63296;SDS011;49419;51.716;-4.948;2022-08-19T12:44:39;4.80;;;3.05;;
63296;SDS011;49419;51.716;-4.948;2022-08-19T12:47:07;3.83;;;2.80;;
63296;SDS011;49419;51.716;-4.948;2022-08-19T12:49:37;3.85;;;2.78;;
63296;SDS011;49419;51.716;-4.948;2022-08-19T12:52:06;3.15;;;2.85;;
63296;SDS011;49419;51.716;-4.948;2022-08-19T12:54:35;3.25;;;2.85;;
63296;SDS011;49419;51.716;-4.948;2022-08-19T12:57:04;3.45;;;2.80;;
63296;SDS011;49419;51.716;-4.948;2022-08-19T13:02:09;3.55;;;3.10;;
63296;SDS011;49419;51.716;-4.948;2022-08-19T13:04:38;2.88;;;2.55;;
63296;SDS011;49419;51.716;-4.948;2022-08-19T13:07:06;3.78;;;2.78;;
63296;SDS011;49419;51.716;-4.948;2022-08-19T13:09:33;4.15;;;3.38;;
63296;SDS011;49419;51.716;-4.948;2022-08-19T13:12:00;3.67;;;3.22;;
63296;SDS011;49419;51.716;-4.948;2022-08-19T13:14:28;3.28;;;2.97;;
63296;SDS011;49419;51.716;-4.948;2022-08-19T13:16:56;3.50;;;3.20;;
63296;SDS011;49419;51.716;-4.948;2022-08-19T13:19:24;3.23;;;2.97;;
63296;SDS011;49419;51.716;-4.948;2022-08-19T13:21:50;5.07;;;3.90;;
63296;SDS011;49419;51.716;-4.948;2022-08-19T13:24:18;3.67;;;3.38;;
63296;SDS011;49419;51.716;-4.948;2022-08-19T13:26:45;3.40;;;3.08;;
63296;SDS011;49419;51.716;-4.948;2022-08-19T13:29:11;3.45;;;3.00;;
63296;SDS011;49419;51.716;-4.948;2022-08-19T13:32:01;4.38;;;3.55;;
63296;SDS011;49419;51.716;-4.948;2022-08-19T13:34:45;4.53;;;3.40;;
63296;SDS011;49419;51.716;-4.948;2022-08-19T13:37:12;3.63;;;3.10;;
63296;SDS011;49419;51.716;-4.948;2022-08-19T13:39:38;3.22;;;2.92;;
63296;SDS011;49419;51.716;-4.948;2022-08-19T13:42:06;4.05;;;3.33;;
63296;SDS011;49419;51.716;-4.948;2022-08-19T13:44:34;3.38;;;3.10;;
63296;SDS011;49419;51.716;-4.948;2022-08-19T13:47:00;3.67;;;3.10;;
63296;SDS011;49419;51.716;-4.948;2022-08-19T13:49:32;5.15;;;3.00;;
63296;SDS011;49419;51.716;-4.948;2022-08-19T13:52:03;5.18;;;3.30;;
63296;SDS011;49419;51.716;-4.948;2022-08-19T13:54:53;3.65;;;2.90;;
63296;SDS011;49419;51.716;-4.948;2022-08-19T13:57:19;5.93;;;3.30;;
63296;SDS011;49419;51.716;-4.948;2022-08-19T14:00:03;3.35;;;3.05;;
63296;SDS011;49419;51.716;-4.948;2022-08-19T14:02:36;3.33;;;2.95;;
63296;SDS011;49419;51.716;-4.948;2022-08-19T14:05:13;4.07;;;2.90;;
63296;SDS011;49419;51.716;-4.948;2022-08-19T14:08:06;3.53;;;3.00;;
63296;SDS011;49419;51.716;-4.948;2022-08-19T14:10:37;3.85;;;3.13;;
63296;SDS011;49419;51.716;-4.948;2022-08-19T14:13:05;3.47;;;3.00;;
63296;SDS011;49419;51.716;-4.948;2022-08-19T14:15:45;3.22;;;2.83;;
63296;SDS011;49419;51.716;-4.948;2022-08-19T14:18:24;3.08;;;2.70;;
63296;SDS011;49419;51.716;-4.948;2022-08-19T14:20:55;2.63;;;2.42;;
63296;SDS011;49419;51.716;-4.948;2022-08-19T14:23:21;3.60;;;2.60;;
63296;SDS011;49419;51.716;-4.948;2022-08-19T14:25:48;2.70;;;2.45;;
63296;SDS011;49419;51.716;-4.948;2022-08-19T14:28:14;4.25;;;2.20;;
63296;SDS011;49419;51.716;-4.948;2022-08-19T14:30:45;2.83;;;2.30;;
63296;SDS011;49419;51.716;-4.948;2022-08-19T14:33:18;2.50;;;2.30;;
63296;SDS011;49419;51.716;-4.948;2022-08-19T14:35:45;2.63;;;2.20;;
63296;SDS011;49419;51.716;-4.948;2022-08-19T14:38:17;2.55;;;2.30;;
63296;SDS011;49419;51.716;-4.948;2022-08-19T14:41:10;2.65;;;2.40;;
63296;SDS011;49419;51.716;-4.948;2022-08-19T14:43:49;2.63;;;2.40;;
63296;SDS011;49419;51.716;-4.948;2022-08-19T14:46:19;2.78;;;2.40;;
63296;SDS011;49419;51.716;-4.948;2022-08-19T14:48:47;2.85;;;2.53;;
63296;SDS011;49419;51.716;-4.948;2022-08-19T14:51:13;3.85;;;2.60;;
63296;SDS011;49419;51.716;-4.948;2022-08-19T14:53:44;3.00;;;2.70;;
63296;SDS011;49419;51.716;-4.948;2022-08-19T14:56:12;3.00;;;2.70;;
63296;SDS011;49419;51.716;-4.948;2022-08-19T14:58:43;2.70;;;2.50;;
63296;SDS011;49419;51.716;-4.948;2022-08-19T15:01:09;3.33;;;3.00;;
63296;SDS011;49419;51.716;-4.948;2022-08-19T15:03:36;4.30;;;3.33;;
63296;SDS011;49419;51.716;-4.948;2022-08-19T15:06:05;5.03;;;4.13;;
63296;SDS011;49419;51.716;-4.948;2022-08-19T15:08:32;4.88;;;4.47;;
63296;SDS011;49419;51.716;-4.948;2022-08-19T15:11:07;5.10;;;4.60;;
63296;SDS011;49419;51.716;-4.948;2022-08-19T15:13:34;4.68;;;4.28;;
63296;SDS011;49419;51.716;-4.948;2022-08-19T15:16:02;4.85;;;4.32;;
63296;SDS011;49419;51.716;-4.948;2022-08-19T15:18:29;4.15;;;3.70;;
63296;SDS011;49419;51.716;-4.948;2022-08-19T15:20:54;4.47;;;3.80;;
63296;SDS011;49419;51.716;-4.948;2022-08-19T15:23:22;4.13;;;3.83;;
63296;SDS011;49419;51.716;-4.948;2022-08-19T15:25:48;4.57;;;3.70;;
63296;SDS011;49419;51.716;-4.948;2022-08-19T15:28:16;3.53;;;3.22;;
63296;SDS011;49419;51.716;-4.948;2022-08-19T15:30:43;3.30;;;3.10;;
63296;SDS011;49419;51.716;-4.948;2022-08-19T15:33:09;3.10;;;2.80;;
63296;SDS011;49419;51.716;-4.948;2022-08-19T15:35:41;3.80;;;3.50;;
63296;SDS011;49419;51.716;-4.948;2022-08-19T15:38:07;3.80;;;3.50;;
63296;SDS011;49419;51.716;-4.948;2022-08-19T15:40:37;3.55;;;3.25;;
63296;SDS011;49419;51.716;-4.948;2022-08-19T15:43:04;3.70;;;3.35;;
63296;SDS011;49419;51.716;-4.948;2022-08-19T15:45:29;3.83;;;3.50;;
63296;SDS011;49419;51.716;-4.948;2022-08-19T15:48:02;3.87;;;3.03;;
63296;SDS011;49419;51.716;-4.948;2022-08-19T15:50:29;4.03;;;3.60;;
63296;SDS011;49419;51.716;-4.948;2022-08-19T15:53:00;3.50;;;3.20;;
63296;SDS011;49419;51.716;-4.948;2022-08-19T15:55:29;3.70;;;3.40;;
63296;SDS011;49419;51.716;-4.948;2022-08-19T15:57:57;3.63;;;3.33;;
63296;SDS011;49419;51.716;-4.948;2022-08-19T16:00:49;3.80;;;3.50;;
63296;SDS011;49419;51.716;-4.948;2022-08-19T16:03:33;4.15;;;3.78;;
63296;SDS011;49419;51.716;-4.948;2022-08-19T16:06:17;4.50;;;4.10;;
63296;SDS011;49419;51.716;-4.948;2022-08-19T16:08:52;5.10;;;3.75;;
63296;SDS011;49419;51.716;-4.948;2022-08-19T16:11:26;4.07;;;3.67;;
63296;SDS011;49419;51.716;-4.948;2022-08-19T16:13:56;3.63;;;3.33;;
63296;SDS011;49419;51.716;-4.948;2022-08-19T16:16:27;4.47;;;3.67;;
63296;SDS011;49419;51.716;-4.948;2022-08-19T16:18:57;4.35;;;4.00;;
63296;SDS011;49419;51.716;-4.948;2022-08-19T16:21:25;4.25;;;3.85;;
63296;SDS011;49419;51.716;-4.948;2022-08-19T16:23:57;5.15;;;3.95;;
63296;SDS011;49419;51.716;-4.948;2022-08-19T16:26:25;4.60;;;4.20;;
63296;SDS011;49419;51.716;-4.948;2022-08-19T16:28:56;4.35;;;4.05;;
63296;SDS011;49419;51.716;-4.948;2022-08-19T16:31:27;4.82;;;4.40;;
63296;SDS011;49419;51.716;-4.948;2022-08-19T16:33:56;4.53;;;4.13;;
63296;SDS011;49419;51.716;-4.948;2022-08-19T16:36:24;4.65;;;4.30;;
63296;SDS011;49419;51.716;-4.948;2022-08-19T16:41:20;4.63;;;4.30;;
63296;SDS011;49419;51.716;-4.948;2022-08-19T16:43:47;4.65;;;4.28;;
63296;SDS011;49419;51.716;-4.948;2022-08-19T16:46:17;4.60;;;4.20;;
63296;SDS011;49419;51.716;-4.948;2022-08-19T16:48:47;4.50;;;4.18;;
63296;SDS011;49419;51.716;-4.948;2022-08-19T16:51:13;4.07;;;3.78;;
63296;SDS011;49419;51.716;-4.948;2022-08-19T16:53:40;4.65;;;4.25;;
63296;SDS011;49419;51.716;-4.948;2022-08-19T16:56:16;4.38;;;4.07;;
63296;SDS011;49419;51.716;-4.948;2022-08-19T16:58:49;5.78;;;5.38;;
63296;SDS011;49419;51.716;-4.948;2022-08-19T17:01:16;5.75;;;5.30;;
63296;SDS011;49419;51.716;-4.948;2022-08-19T17:03:42;6.00;;;5.50;;
63296;SDS011;49419;51.716;-4.948;2022-08-19T17:06:13;6.07;;;5.60;;
63296;SDS011;49419;51.716;-4.948;2022-08-19T17:08:41;6.30;;;5.80;;
63296;SDS011;49419;51.716;-4.948;2022-08-19T17:11:07;6.10;;;5.60;;
63296;SDS011;49419;51.716;-4.948;2022-08-19T17:13:33;6.05;;;5.55;;
63296;SDS011;49419;51.716;-4.948;2022-08-19T17:16:05;5.40;;;5.05;;
63296;SDS011;49419;51.716;-4.948;2022-08-19T17:21:06;6.28;;;5.68;;
63296;SDS011;49419;51.716;-4.948;2022-08-19T17:23:31;6.28;;;5.88;;
63296;SDS011;49419;51.716;-4.948;2022-08-19T17:26:05;6.28;;;5.85;;
63296;SDS011;49419;51.716;-4.948;2022-08-19T17:28:32;6.20;;;5.80;;
63296;SDS011;49419;51.716;-4.948;2022-08-19T17:30:57;6.32;;;5.82;;
63296;SDS011;49419;51.716;-4.948;2022-08-19T17:35:57;6.32;;;5.72;;
63296;SDS011;49419;51.716;-4.948;2022-08-19T17:38:25;5.75;;;5.28;;
63296;SDS011;49419;51.716;-4.948;2022-08-19T17:40:55;5.70;;;5.20;;
63296;SDS011;49419;51.716;-4.948;2022-08-19T17:43:32;5.10;;;4.80;;
63296;SDS011;49419;51.716;-4.948;2022-08-19T17:46:01;5.22;;;4.90;;
63296;SDS011;49419;51.716;-4.948;2022-08-19T17:48:29;4.72;;;4.43;;
63296;SDS011;49419;51.716;-4.948;2022-08-19T17:53:55;5.57;;;4.82;;
63296;SDS011;49419;51.716;-4.948;2022-08-19T17:56:20;5.18;;;4.78;;
63296;SDS011;49419;51.716;-4.948;2022-08-19T18:01:51;5.40;;;5.00;;
63296;SDS011;49419;51.716;-4.948;2022-08-19T18:04:19;5.18;;;4.88;;
63296;SDS011;49419;51.716;-4.948;2022-08-19T18:06:50;5.40;;;5.00;;
63296;SDS011;49419;51.716;-4.948;2022-08-19T18:09:26;5.50;;;5.10;;
63296;SDS011;49419;51.716;-4.948;2022-08-19T18:12:03;5.65;;;5.25;;
63296;SDS011;49419;51.716;-4.948;2022-08-19T18:15:16;5.80;;;5.30;;
63296;SDS011;49419;51.716;-4.948;2022-08-19T18:18:07;5.28;;;4.82;;
63296;SDS011;49419;51.716;-4.948;2022-08-19T18:20:37;5.60;;;5.10;;
63296;SDS011;49419;51.716;-4.948;2022-08-19T18:23:30;5.60;;;5.10;;
63296;SDS011;49419;51.716;-4.948;2022-08-19T18:25:57;5.57;;;5.10;;
63296;SDS011;49419;51.716;-4.948;2022-08-19T18:28:32;5.40;;;5.00;;
63296;SDS011;49419;51.716;-4.948;2022-08-19T18:31:16;5.82;;;5.30;;
63296;SDS011;49419;51.716;-4.948;2022-08-19T18:33:43;6.18;;;5.57;;
63296;SDS011;49419;51.716;-4.948;2022-08-19T18:36:22;5.90;;;5.40;;
63296;SDS011;49419;51.716;-4.948;2022-08-19T18:42:40;4.90;;;4.50;;
63296;SDS011;49419;51.716;-4.948;2022-08-19T18:45:46;4.88;;;4.22;;
63296;SDS011;49419;51.716;-4.948;2022-08-19T18:48:39;6.93;;;4.30;;
63296;SDS011;49419;51.716;-4.948;2022-08-19T18:51:23;3.20;;;2.92;;
63296;SDS011;49419;51.716;-4.948;2022-08-19T18:53:50;3.85;;;3.10;;
63296;SDS011;49419;51.716;-4.948;2022-08-19T18:58:50;3.00;;;2.50;;
63296;SDS011;49419;51.716;-4.948;2022-08-19T19:01:38;5.90;;;2.90;;
63296;SDS011;49419;51.716;-4.948;2022-08-19T19:04:30;3.35;;;2.70;;
63296;SDS011;49419;51.716;-4.948;2022-08-19T19:10:10;3.13;;;2.70;;
63296;SDS011;49419;51.716;-4.948;2022-08-19T19:12:39;3.15;;;2.85;;
63296;SDS011;49419;51.716;-4.948;2022-08-19T19:15:08;5.47;;;3.58;;
63296;SDS011;49419;51.716;-4.948;2022-08-19T19:17:37;3.60;;;3.30;;
63296;SDS011;49419;51.716;-4.948;2022-08-19T19:20:04;5.05;;;3.92;;
63296;SDS011;49419;51.716;-4.948;2022-08-19T19:22:30;4.03;;;3.70;;
63296;SDS011;49419;51.716;-4.948;2022-08-19T19:24:58;4.10;;;3.80;;
63296;SDS011;49419;51.716;-4.948;2022-08-19T19:27:24;6.07;;;4.20;;
63296;SDS011;49419;51.716;-4.948;2022-08-19T19:29:54;5.47;;;4.20;;
63296;SDS011;49419;51.716;-4.948;2022-08-19T19:32:24;4.40;;;4.00;;
63296;SDS011;49419;51.716;-4.948;2022-08-19T19:35:00;5.45;;;4.10;;
63296;SDS011;49419;51.716;-4.948;2022-08-19T19:37:25;4.63;;;4.30;;
63296;SDS011;49419;51.716;-4.948;2022-08-19T19:39:55;4.80;;;4.40;;
63296;SDS011;49419;51.716;-4.948;2022-08-19T19:42:22;4.88;;;4.53;;
63296;SDS011;49419;51.716;-4.948;2022-08-19T19:44:49;5.63;;;4.80;;
63296;SDS011;49419;51.716;-4.948;2022-08-19T19:47:16;5.20;;;4.70;;
63296;SDS011;49419;51.716;-4.948;2022-08-19T19:49:43;5.30;;;4.90;;
63296;SDS011;49419;51.716;-4.948;2022-08-19T19:52:11;5.30;;;4.90;;
63296;SDS011;49419;51.716;-4.948;2022-08-19T19:54:36;5.18;;;4.78;;
63296;SDS011;49419;51.716;-4.948;2022-08-19T19:57:05;5.05;;;4.65;;
63296;SDS011;49419;51.716;-4.948;2022-08-19T19:59:32;5.13;;;4.73;;
63296;SDS011;49419;51.716;-4.948;2022-08-19T20:02:00;5.28;;;4.88;;
63296;SDS011;49419;51.716;-4.948;2022-08-19T20:04:26;5.80;;;5.30;;
63296;SDS011;49419;51.716;-4.948;2022-08-19T20:06:52;5.18;;;4.78;;
63296;SDS011;49419;51.716;-4.948;2022-08-19T20:09:17;5.28;;;4.78;;
63296;SDS011;49419;51.716;-4.948;2022-08-19T20:11:50;5.40;;;5.00;;
63296;SDS011;49419;51.716;-4.948;2022-08-19T20:14:23;5.40;;;5.00;;
63296;SDS011;49419;51.716;-4.948;2022-08-19T20:16:53;5.95;;;5.28;;
63296;SDS011;49419;51.716;-4.948;2022-08-19T20:19:22;5.20;;;4.80;;
63296;SDS011;49419;51.716;-4.948;2022-08-19T20:22:07;5.03;;;4.70;;
63296;SDS011;49419;51.716;-4.948;2022-08-19T20:24:45;5.65;;;5.25;;
63296;SDS011;49419;51.716;-4.948;2022-08-19T20:27:19;5.35;;;4.95;;
63296;SDS011;49419;51.716;-4.948;2022-08-19T20:29:46;5.20;;;4.82;;
63296;SDS011;49419;51.716;-4.948;2022-08-19T20:32:13;5.10;;;4.70;;
63296;SDS011;49419;51.716;-4.948;2022-08-19T20:34:40;4.82;;;4.53;;
63296;SDS011;49419;51.716;-4.948;2022-08-19T20:37:08;5.07;;;4.78;;
63296;SDS011;49419;51.716;-4.948;2022-08-19T20:39:34;5.25;;;4.88;;
63296;SDS011;49419;51.716;-4.948;2022-08-19T20:41:59;5.13;;;4.80;;
63296;SDS011;49419;51.716;-4.948;2022-08-19T20:44:25;4.82;;;4.53;;
63296;SDS011;49419;51.716;-4.948;2022-08-19T20:46:57;5.05;;;4.75;;
63296;SDS011;49419;51.716;-4.948;2022-08-19T20:49:31;5.10;;;4.70;;
63296;SDS011;49419;51.716;-4.948;2022-08-19T20:51:59;5.30;;;4.90;;
63296;SDS011;49419;51.716;-4.948;2022-08-19T20:54:29;5.00;;;4.60;;
63296;SDS011;49419;51.716;-4.948;2022-08-19T20:56:55;5.05;;;4.65;;
63296;SDS011;49419;51.716;-4.948;2022-08-19T20:59:21;4.80;;;4.40;;
63296;SDS011;49419;51.716;-4.948;2022-08-19T21:01:47;4.70;;;4.40;;
63296;SDS011;49419;51.716;-4.948;2022-08-19T21:10:49;5.10;;;4.80;;
63296;SDS011;49419;51.716;-4.948;2022-08-19T21:16:28;4.82;;;4.53;;
63296;SDS011;49419;51.716;-4.948;2022-08-19T21:22:17;5.30;;;5.00;;
63296;SDS011;49419;51.716;-4.948;2022-08-19T21:25:57;5.30;;;5.00;;
63296;SDS011;49419;51.716;-4.948;2022-08-19T21:31:12;5.30;;;5.00;;
63296;SDS011;49419;51.716;-4.948;2022-08-19T21:37:04;5.20;;;4.90;;
63296;SDS011;49419;51.716;-4.948;2022-08-19T21:42:45;5.72;;;5.32;;
63296;SDS011;49419;51.716;-4.948;2022-08-19T21:45:26;5.50;;;5.10;;
63296;SDS011;49419;51.716;-4.948;2022-08-19T21:51:52;5.47;;;5.10;;
63296;SDS011;49419;51.716;-4.948;2022-08-19T21:58:13;5.70;;;5.30;;
63296;SDS011;49419;51.716;-4.948;2022-08-19T22:04:22;5.90;;;5.50;;
63296;SDS011;49419;51.716;-4.948;2022-08-19T22:16:51;5.72;;;5.32;;
63296;SDS011;49419;51.716;-4.948;2022-08-19T22:19:17;6.15;;;5.75;;
63296;SDS011;49419;51.716;-4.948;2022-08-19T22:21:44;6.20;;;5.70;;
63296;SDS011;49419;51.716;-4.948;2022-08-19T22:24:16;5.80;;;5.40;;
63296;SDS011;49419;51.716;-4.948;2022-08-19T22:26:51;5.90;;;5.50;;
63296;SDS011;49419;51.716;-4.948;2022-08-19T22:29:18;6.25;;;5.70;;
63296;SDS011;49419;51.716;-4.948;2022-08-19T22:35:23;6.05;;;5.65;;
63296;SDS011;49419;51.716;-4.948;2022-08-19T22:38:01;5.57;;;5.18;;
63296;SDS011;49419;51.716;-4.948;2022-08-19T22:40:43;6.10;;;5.60;;
63296;SDS011;49419;51.716;-4.948;2022-08-19T22:43:19;5.55;;;5.25;;
63296;SDS011;49419;51.716;-4.948;2022-08-19T22:48:35;5.68;;;5.28;;
63296;SDS011;49419;51.716;-4.948;2022-08-19T22:51:05;5.60;;;5.20;;
63296;SDS011;49419;51.716;-4.948;2022-08-19T22:53:57;6.47;;;5.88;;
63296;SDS011;49419;51.716;-4.948;2022-08-19T22:59:06;6.30;;;5.80;;
63296;SDS011;49419;51.716;-4.948;2022-08-19T23:04:09;6.40;;;5.90;;
63296;SDS011;49419;51.716;-4.948;2022-08-19T23:06:38;5.88;;;5.47;;
63296;SDS011;49419;51.716;-4.948;2022-08-19T23:09:08;6.30;;;5.70;;
63296;SDS011;49419;51.716;-4.948;2022-08-19T23:11:41;6.32;;;5.85;;
63296;SDS011;49419;51.716;-4.948;2022-08-19T23:17:01;6.40;;;5.90;;
63296;SDS011;49419;51.716;-4.948;2022-08-19T23:19:38;5.97;;;5.63;;
63296;SDS011;49419;51.716;-4.948;2022-08-19T23:22:09;6.10;;;5.70;;
63296;SDS011;49419;51.716;-4.948;2022-08-19T23:25:18;6.38;;;5.85;;
63296;SDS011;49419;51.716;-4.948;2022-08-19T23:28:06;6.40;;;5.90;;
63296;SDS011;49419;51.716;-4.948;2022-08-19T23:31:26;5.72;;;5.30;;
63296;SDS011;49419;51.716;-4.948;2022-08-19T23:34:00;5.90;;;5.50;;
63296;SDS011;49419;51.716;-4.948;2022-08-19T23:36:55;5.60;;;5.30;;
63296;SDS011;49419;51.716;-4.948;2022-08-19T23:40:09;6.55;;;5.60;;
63296;SDS011;49419;51.716;-4.948;2022-08-19T23:51:27;6.40;;;5.85;;
63296;SDS011;49419;51.716;-4.948;2022-08-19T23:57:25;6.38;;;5.88;;
63296;SDS011;49419;51.716;-4.948;2022-08-19T23:59:59;6.13;;;5.72;;
